Time;durP1;ratioP1;P1;durP2;ratioP2;P2;SDS_P1;SDS_P2;PMS_P1;PMS_P2;Temp;Humidity;BMP_temperature;BMP_pressure;BME280_temperature;BME280_humidity;BME280_pressure;Samples;Min_cycle;Max_cycle;Signal;HPM_P1;HPM_P2
2023/01/19 00:01:18;;;;;;;;;;;;;;;5.31;74.86;98524.81;5086625;28;5322;-81
2023/01/19 00:03:45;;;;;;;;;;;;;;;5.30;74.86;98515.22;5078235;28;5542;-81
2023/01/19 00:06:12;;;;;;;;;;;;;;;5.29;74.82;98522.38;5087079;28;5283;-80
2023/01/19 00:08:38;;;;;;;;;;;;;;;5.27;74.67;98524.50;5077749;28;5505;-80
2023/01/19 00:11:05;;;;;;;;;;;;;;;5.20;75.08;98523.78;5072202;28;5440;-81
2023/01/19 00:13:31;;;;;;;;;;;;;;;5.30;74.70;98516.00;5075811;28;5457;-81
2023/01/19 00:15:59;;;;;;;;;;;;;;;5.33;74.64;98528.88;5073996;28;5321;-80
2023/01/19 00:18:26;;;;;;;;;;;;;;;5.22;75.03;98519.84;5089917;28;5402;-81
2023/01/19 00:20:53;;;;;;;;;;;;;;;5.21;75.09;98520.91;5088597;28;5342;-80
2023/01/19 00:23:20;;;;;;;;;;;;;;;5.22;74.92;98522.50;5069819;28;5456;-81
2023/01/19 00:25:48;;;;;;;;;;;;;;;5.23;74.89;98523.31;5088771;28;5420;-81
2023/01/19 00:28:15;;;;;;;;;;;;;;;5.23;75.00;98524.16;5065014;28;5844;-81
2023/01/19 00:30:42;;;;;;;;;;;;;;;5.26;74.82;98528.19;5087143;28;5273;-81
2023/01/19 00:33:09;;;;;;;;;;;;;;;5.27;74.77;98523.69;5088420;28;5298;-81
2023/01/19 00:35:36;;;;;;;;;;;;;;;5.27;74.59;98531.69;5085892;28;5506;-80
2023/01/19 00:38:04;;;;;;;;;;;;;;;5.27;74.68;98529.84;5075183;28;5258;-81
2023/01/19 00:40:32;;;;;;;;;;;;;;;5.27;74.82;98526.34;5091865;28;5572;-81
2023/01/19 00:42:59;;;;;;;;;;;;;;;5.27;74.97;98537.03;5088642;28;5312;-81
2023/01/19 00:45:26;;;;;;;;;;;;;;;5.29;74.99;98538.41;5086596;28;5338;-81
2023/01/19 00:47:55;;;;;;;;;;;;;;;5.28;74.72;98536.78;5090594;28;5467;-81
2023/01/19 00:50:23;;;;;;;;;;;;;;;5.29;74.77;98543.72;5072010;28;5386;-81
2023/01/19 00:52:50;;;;;;;;;;;;;;;5.28;74.65;98536.78;5086263;28;5305;-81
2023/01/19 00:55:17;;;;;;;;;;;;;;;5.22;74.95;98540.38;5089622;28;5449;-81
2023/01/19 00:57:44;;;;;;;;;;;;;;;5.32;74.59;98534.44;5069847;28;5338;-81
2023/01/19 01:00:12;;;;;;;;;;;;;;;5.18;74.90;98540.06;5087470;28;5605;-80
2023/01/19 01:02:40;;;;;;;;;;;;;;;5.33;74.45;98542.25;5089381;28;5381;-81
2023/01/19 01:05:07;;;;;;;;;;;;;;;5.35;74.62;98537.44;5076000;28;5754;-81
2023/01/19 01:07:39;;;;;;;;;;;;;;;5.43;74.38;98538.97;5086288;28;5231;-81
2023/01/19 01:10:05;;;;;;;;;;;;;;;5.36;74.51;98543.63;5076499;28;5268;-81
2023/01/19 01:12:32;;;;;;;;;;;;;;;5.47;74.16;98540.94;5087087;28;5323;-81
2023/01/19 01:14:59;;;;;;;;;;;;;;;5.42;73.88;98545.34;5079729;28;5591;-81
2023/01/19 01:17:26;;;;;;;;;;;;;;;5.44;74.19;98543.25;5086112;28;5282;-81
2023/01/19 01:19:53;;;;;;;;;;;;;;;5.44;74.10;98541.41;5088905;28;5655;-81
2023/01/19 01:22:21;;;;;;;;;;;;;;;5.49;73.97;98548.69;5073246;28;5448;-81
2023/01/19 01:24:47;;;;;;;;;;;;;;;5.42;74.19;98548.84;5085484;28;5325;-80
2023/01/19 01:27:14;;;;;;;;;;;;;;;5.50;73.86;98552.19;5088854;28;5337;-81
2023/01/19 01:29:45;;;;;;;;;;;;;;;5.55;73.76;98546.94;5068004;28;5563;-81
2023/01/19 01:32:12;;;;;;;;;;;;;;;5.47;73.90;98556.97;5088573;28;5429;-81
2023/01/19 01:34:39;;;;;;;;;;;;;;;5.49;73.94;98556.72;5065192;28;5354;-81
2023/01/19 01:37:07;;;;;;;;;;;;;;;5.42;74.16;98558.72;5090173;28;5399;-81
2023/01/19 01:39:34;;;;;;;;;;;;;;;5.51;74.10;98556.50;5088060;28;5313;-81
2023/01/19 01:42:00;;;;;;;;;;;;;;;5.60;73.46;98545.19;5088523;28;5461;-81
2023/01/19 01:44:27;;;;;;;;;;;;;;;5.41;74.24;98546.38;5086997;28;5292;-81
2023/01/19 01:46:53;;;;;;;;;;;;;;;5.43;74.13;98544.31;5084804;28;5316;-81
2023/01/19 01:49:20;;;;;;;;;;;;;;;5.46;73.93;98538.50;5069203;28;5589;-81
2023/01/19 01:51:47;;;;;;;;;;;;;;;5.55;73.70;98544.28;5079579;28;5341;-81
2023/01/19 01:54:15;;;;;;;;;;;;;;;5.60;73.48;98547.06;5074608;28;5383;-81
2023/01/19 01:56:41;;;;;;;;;;;;;;;5.56;73.49;98553.91;5076984;28;5508;-81
2023/01/19 01:59:09;;;;;;;;;;;;;;;5.62;73.23;98553.00;5071737;28;5269;-81
2023/01/19 02:04:21;;;;;;;;;;;;;;;5.55;73.80;98547.75;5052988;28;5125;-81
2023/01/19 02:15:01;;;;;;;;;;;;;;;5.55;73.83;98566.44;5072503;28;5355;-81
2023/01/19 02:17:27;;;;;;;;;;;;;;;5.61;73.67;98567.38;5071026;28;5294;-80
2023/01/19 02:19:54;;;;;;;;;;;;;;;5.60;73.26;98568.44;5062691;28;5347;-81
2023/01/19 02:22:22;;;;;;;;;;;;;;;5.51;73.99;98564.50;5068924;28;5299;-80
2023/01/19 02:24:50;;;;;;;;;;;;;;;5.58;73.65;98567.84;5057152;28;5309;-81
2023/01/19 02:27:17;;;;;;;;;;;;;;;5.59;73.58;98564.13;5075520;28;5243;-81
2023/01/19 02:29:44;;;;;;;;;;;;;;;5.61;73.48;98572.72;5079262;28;5346;-80
2023/01/19 02:32:12;;;;;;;;;;;;;;;5.46;74.16;98567.88;5080341;28;5383;-81
2023/01/19 02:34:39;;;;;;;;;;;;;;;5.61;73.76;98578.06;5077651;28;5364;-81
2023/01/19 02:37:06;;;;;;;;;;;;;;;5.52;73.84;98574.94;5061295;28;5400;-81
2023/01/19 02:39:33;;;;;;;;;;;;;;;5.49;73.93;98569.25;5079588;28;5447;-81
2023/01/19 02:42:00;;;;;;;;;;;;;;;5.50;74.03;98566.38;5080355;28;5207;-81
2023/01/19 02:44:27;;;;;;;;;;;;;;;5.54;73.80;98561.34;5076321;28;5228;-81
2023/01/19 02:46:54;;;;;;;;;;;;;;;5.43;74.16;98557.66;5079781;28;5198;-81
2023/01/19 02:49:21;;;;;;;;;;;;;;;5.55;73.99;98566.44;5081097;28;5277;-81
2023/01/19 02:51:48;;;;;;;;;;;;;;;5.57;73.77;98564.38;5085971;28;5268;-80
2023/01/19 02:54:15;;;;;;;;;;;;;;;5.52;73.97;98563.44;5084475;28;5243;-82
2023/01/19 02:56:42;;;;;;;;;;;;;;;5.61;73.61;98564.69;5093664;28;5401;-82
2023/01/19 02:59:09;;;;;;;;;;;;;;;5.58;73.78;98562.50;5080862;28;5464;-82
2023/01/19 03:01:35;;;;;;;;;;;;;;;5.44;74.09;98567.28;5076077;28;5244;-81
2023/01/19 03:04:02;;;;;;;;;;;;;;;5.47;74.30;98570.31;5079136;28;5224;-82
2023/01/19 03:06:29;;;;;;;;;;;;;;;5.52;73.95;98577.59;5079567;28;5313;-81
2023/01/19 03:08:57;;;;;;;;;;;;;;;5.42;74.32;98569.38;5081181;28;5239;-82
2023/01/19 03:11:24;;;;;;;;;;;;;;;5.55;73.84;98576.31;5062524;28;5197;-82
2023/01/19 03:13:51;;;;;;;;;;;;;;;5.60;73.63;98577.25;5076461;28;5317;-82
2023/01/19 03:16:19;;;;;;;;;;;;;;;5.49;73.96;98583.41;5078265;28;5663;-82
2023/01/19 03:18:47;;;;;;;;;;;;;;;5.47;74.22;98581.00;5080839;28;5632;-82
2023/01/19 03:21:13;;;;;;;;;;;;;;;5.51;73.91;98585.88;5059184;28;5336;-81
2023/01/19 03:23:40;;;;;;;;;;;;;;;5.43;74.19;98587.81;5079664;28;5333;-82
2023/01/19 03:26:06;;;;;;;;;;;;;;;5.54;73.91;98588.88;5084885;28;5223;-82
2023/01/19 03:28:34;;;;;;;;;;;;;;;5.43;74.43;98581.69;5063280;28;5431;-82
2023/01/19 03:31:01;;;;;;;;;;;;;;;5.46;74.10;98587.34;5081158;28;5259;-81
2023/01/19 03:33:28;;;;;;;;;;;;;;;5.49;74.30;98587.94;5081225;28;5271;-82
2023/01/19 03:35:55;;;;;;;;;;;;;;;5.42;74.44;98585.41;5060794;28;5293;-81
2023/01/19 03:38:22;;;;;;;;;;;;;;;5.41;74.40;98592.59;5063279;28;5134;-81
2023/01/19 03:40:49;;;;;;;;;;;;;;;5.53;74.00;98592.59;5056616;28;5247;-82
2023/01/19 03:43:16;;;;;;;;;;;;;;;5.51;73.93;98592.00;5075348;28;5341;-81
2023/01/19 03:45:44;;;;;;;;;;;;;;;5.32;74.58;98596.66;5056813;28;5169;-81
2023/01/19 03:48:11;;;;;;;;;;;;;;;5.42;74.33;98596.09;5061863;28;5240;-81
2023/01/19 03:50:38;;;;;;;;;;;;;;;5.34;74.55;98599.09;5059231;28;5191;-81
2023/01/19 03:53:04;;;;;;;;;;;;;;;5.40;74.15;98603.50;5073612;28;5398;-81
2023/01/19 03:55:33;;;;;;;;;;;;;;;5.39;74.42;98600.03;5078346;28;5284;-81
2023/01/19 03:57:59;;;;;;;;;;;;;;;5.34;74.70;98605.25;5078294;28;5329;-82
2023/01/19 04:00:27;;;;;;;;;;;;;;;5.46;74.19;98605.25;5090693;28;5312;-81
2023/01/19 04:02:55;;;;;;;;;;;;;;;5.39;74.36;98608.03;5086793;28;5384;-81
2023/01/19 04:05:22;;;;;;;;;;;;;;;5.37;74.43;98599.44;5072642;28;5356;-82
2023/01/19 04:07:50;;;;;;;;;;;;;;;5.39;74.45;98616.03;5067878;28;5287;-82
2023/01/19 04:10:17;;;;;;;;;;;;;;;5.28;74.56;98603.50;5074318;28;5277;-82
2023/01/19 04:12:44;;;;;;;;;;;;;;;5.33;74.62;98608.16;5074922;28;5240;-82
2023/01/19 04:15:36;;;;;;;;;;;;;;;5.31;74.44;98611.06;5073479;28;5158;-81
2023/01/19 04:18:28;;;;;;;;;;;;;;;5.33;74.70;98618.84;5072241;28;5210;-82
2023/01/19 04:21:20;;;;;;;;;;;;;;;5.26;74.86;98620.81;5074214;28;5248;-81
2023/01/19 04:24:12;;;;;;;;;;;;;;;5.32;74.83;98622.53;5076131;28;5209;-81
2023/01/19 04:27:04;;;;;;;;;;;;;;;5.30;74.66;98603.28;5075062;28;5225;-81
2023/01/19 04:29:56;;;;;;;;;;;;;;;5.27;74.88;98617.09;5073394;28;5334;-82
2023/01/19 04:32:48;;;;;;;;;;;;;;;5.44;74.25;98621.50;5074101;28;5008;-81
2023/01/19 04:35:41;;;;;;;;;;;;;;;5.35;74.64;98620.22;5075130;28;5271;-81
2023/01/19 04:38:32;;;;;;;;;;;;;;;5.36;74.55;98615.72;5069973;28;5348;-81
2023/01/19 04:41:25;;;;;;;;;;;;;;;5.34;74.61;98620.47;5074146;28;5126;-82
2023/01/19 04:44:17;;;;;;;;;;;;;;;5.28;74.74;98622.19;5077681;28;5302;-81
2023/01/19 04:47:10;;;;;;;;;;;;;;;5.35;74.49;98628.22;5072911;28;5260;-81
2023/01/19 04:50:04;;;;;;;;;;;;;;;5.37;74.42;98628.81;5073058;28;5115;-81
2023/01/19 04:52:56;;;;;;;;;;;;;;;5.42;74.41;98633.47;5075929;28;5098;-82
2023/01/19 04:55:48;;;;;;;;;;;;;;;5.34;74.52;98636.47;5074202;28;5189;-81
2023/01/19 04:58:40;;;;;;;;;;;;;;;5.39;74.33;98633.94;5080820;28;5300;-81
2023/01/19 05:01:32;;;;;;;;;;;;;;;5.50;73.99;98634.94;5085551;28;5326;-82
2023/01/19 05:04:24;;;;;;;;;;;;;;;5.38;74.28;98632.28;5086265;28;5357;-82
2023/01/19 05:07:17;;;;;;;;;;;;;;;5.32;74.65;98631.34;5089211;28;5292;-81
2023/01/19 05:10:09;;;;;;;;;;;;;;;5.36;74.52;98632.53;5086435;28;5421;-81
2023/01/19 05:13:01;;;;;;;;;;;;;;;5.47;74.04;98641.56;5087971;28;5217;-81
2023/01/19 05:15:53;;;;;;;;;;;;;;;5.42;74.21;98641.47;5087077;28;5268;-82
2023/01/19 05:18:45;;;;;;;;;;;;;;;5.57;73.72;98635.66;5087221;28;5252;-82
2023/01/19 05:21:37;;;;;;;;;;;;;;;5.51;73.91;98647.28;5087239;28;5276;-81
2023/01/19 05:24:29;;;;;;;;;;;;;;;5.58;73.47;98645.28;5088862;28;5376;-82
2023/01/19 05:27:21;;;;;;;;;;;;;;;5.54;73.76;98650.28;5083331;28;5241;-81
2023/01/19 05:29:48;;;;;;;;;;;;;;;5.56;73.60;98647.38;5083378;28;5330;-81
2023/01/19 05:32:40;;;;;;;;;;;;;;;5.54;73.71;98652.16;5079289;28;5336;-81
2023/01/19 05:35:32;;;;;;;;;;;;;;;5.65;73.39;98651.34;5088645;28;5451;-81
2023/01/19 05:38:24;;;;;;;;;;;;;;;5.45;73.95;98655.16;5089679;28;5241;-81
2023/01/19 05:41:17;;;;;;;;;;;;;;;5.57;73.81;98655.16;5084096;28;5378;-81
2023/01/19 05:44:09;;;;;;;;;;;;;;;5.42;74.05;98655.63;5086104;28;5370;-81
2023/01/19 05:47:01;;;;;;;;;;;;;;;5.57;73.54;98657.84;5085342;28;5200;-82
2023/01/19 05:49:54;;;;;;;;;;;;;;;5.59;73.80;98660.25;5089964;28;5310;-82
2023/01/19 05:52:47;;;;;;;;;;;;;;;5.59;73.48;98669.09;5087793;28;5253;-81
2023/01/19 05:55:39;;;;;;;;;;;;;;;5.65;73.32;98668.16;5088092;28;5437;-81
2023/01/19 05:58:27;;;;;;;;;;;;;;;5.61;73.38;98672.34;5085613;28;5322;-81
2023/01/19 06:01:14;;;;;;;;;;;;;;;5.68;73.25;98677.56;5084648;28;5267;-82
2023/01/19 06:04:02;;;;;;;;;;;;;;;5.62;73.47;98673.97;5086671;28;5301;-81
2023/01/19 06:06:28;;;;;;;;;;;;;;;5.65;73.18;98678.03;5073564;28;5551;-82
2023/01/19 06:08:55;;;;;;;;;;;;;;;5.68;73.23;98680.25;5071815;28;5289;-81
2023/01/19 06:11:22;;;;;;;;;;;;;;;5.67;73.27;98674.06;5088909;28;5865;-81
2023/01/19 06:13:49;;;;;;;;;;;;;;;5.71;73.08;98682.44;5069526;28;5358;-81
2023/01/19 06:16:17;;;;;;;;;;;;;;;5.69;73.14;98680.00;5082582;28;5364;-82
2023/01/19 06:18:45;;;;;;;;;;;;;;;5.70;73.21;98681.63;5069677;28;5327;-81
2023/01/19 06:21:13;;;;;;;;;;;;;;;5.84;72.87;98684.06;5081783;28;5512;-81
2023/01/19 06:23:40;;;;;;;;;;;;;;;5.19;73.02;98595.03;5069372;28;5450;-81
2023/01/19 06:26:07;;;;;;;;;;;;;;;5.75;72.98;98682.78;5084515;28;5651;-81
2023/01/19 06:28:33;;;;;;;;;;;;;;;5.68;73.43;98686.41;5085464;28;5305;-82
2023/01/19 06:31:00;;;;;;;;;;;;;;;5.71;73.38;98690.47;5084211;28;5377;-81
2023/01/19 06:33:27;;;;;;;;;;;;;;;5.77;72.87;98694.88;5078725;28;5592;-82
2023/01/19 06:35:54;;;;;;;;;;;;;;;5.84;72.67;98692.88;5082039;28;5710;-81
2023/01/19 06:38:21;;;;;;;;;;;;;;;5.83;72.69;98696.59;5075046;28;5353;-81
2023/01/19 06:40:47;;;;;;;;;;;;;;;5.88;72.38;98696.72;5086578;28;5435;-81
2023/01/19 06:43:14;;;;;;;;;;;;;;;5.79;72.78;98697.28;5081577;28;5713;-82
2023/01/19 06:45:40;;;;;;;;;;;;;;;5.88;72.60;98706.56;5077012;28;5342;-81
2023/01/19 06:48:07;;;;;;;;;;;;;;;5.84;72.81;98700.09;5096259;28;2484;-81
2023/01/19 06:50:33;;;;;;;;;;;;;;;5.85;72.93;98701.69;5100712;28;4991;-82
2023/01/19 06:53:00;;;;;;;;;;;;;;;5.84;72.75;98710.78;5084055;28;1271;-81
2023/01/19 06:55:26;;;;;;;;;;;;;;;5.83;72.95;98709.16;5099384;28;2113;-82
2023/01/19 06:57:53;;;;;;;;;;;;;;;5.81;72.88;98714.72;5080438;28;2554;-81
2023/01/19 07:00:20;;;;;;;;;;;;;;;5.81;73.05;98712.03;5068327;28;5969;-81
2023/01/19 07:02:47;;;;;;;;;;;;;;;5.75;73.33;98718.31;5098851;28;5012;-82
2023/01/19 07:05:14;;;;;;;;;;;;;;;5.77;73.07;98720.78;5096929;28;2256;-81
2023/01/19 07:07:41;;;;;;;;;;;;;;;5.76;73.07;98721.81;5075906;28;5476;-81
2023/01/19 07:10:08;;;;;;;;;;;;;;;5.83;72.91;98726.00;5088556;28;5537;-81
2023/01/19 07:12:34;;;;;;;;;;;;;;;5.82;72.92;98728.88;5090256;28;5679;-81
2023/01/19 07:15:01;;;;;;;;;;;;;;;5.77;73.13;98734.13;5074589;28;5395;-81
2023/01/19 07:17:27;;;;;;;;;;;;;;;5.81;72.94;98737.97;5076406;28;5546;-81
2023/01/19 07:19:54;;;;;;;;;;;;;;;5.82;72.94;98740.38;5091180;28;5380;-81
2023/01/19 07:22:21;;;;;;;;;;;;;;;5.77;73.03;98745.63;5081106;28;5347;-81
2023/01/19 07:24:47;;;;;;;;;;;;;;;5.79;73.29;98745.38;5091592;28;5452;-81
2023/01/19 07:27:15;;;;;;;;;;;;;;;5.86;72.72;98746.91;5076894;28;5355;-81
2023/01/19 07:29:41;;;;;;;;;;;;;;;5.76;73.35;98748.53;5077461;28;5465;-81
2023/01/19 07:32:08;;;;;;;;;;;;;;;5.88;72.58;98749.31;5065379;28;5454;-81
2023/01/19 07:34:35;;;;;;;;;;;;;;;5.74;73.14;98753.31;5080440;28;5333;-81
2023/01/19 07:37:02;;;;;;;;;;;;;;;5.74;73.26;98753.31;5076634;28;5341;-81
2023/01/19 07:39:29;;;;;;;;;;;;;;;5.68;73.53;98766.53;5084889;28;5457;-80
2023/01/19 07:41:56;;;;;;;;;;;;;;;5.77;73.26;98766.19;5076113;28;5791;-81
2023/01/19 07:44:22;;;;;;;;;;;;;;;5.73;73.34;98773.03;5061923;28;5311;-81
2023/01/19 07:46:50;;;;;;;;;;;;;;;5.70;73.42;98775.09;5081733;28;5355;-80
2023/01/19 07:49:16;;;;;;;;;;;;;;;5.72;73.58;98777.56;5078799;28;5371;-81
2023/01/19 07:51:43;;;;;;;;;;;;;;;5.70;73.42;98784.97;5069443;28;5369;-81
2023/01/19 07:54:10;;;;;;;;;;;;;;;5.80;72.98;98787.09;5090003;28;5471;-81
2023/01/19 07:56:36;;;;;;;;;;;;;;;5.83;73.15;98782.09;5075336;28;5366;-81
2023/01/19 07:59:03;;;;;;;;;;;;;;;5.81;73.07;98792.19;5073452;28;5280;-80
2023/01/19 08:01:30;;;;;;;;;;;;;;;5.67;73.54;98798.78;5058025;28;5337;-81
2023/01/19 08:03:56;;;;;;;;;;;;;;;5.73;73.55;98800.53;5076697;28;5427;-81
2023/01/19 08:06:23;;;;;;;;;;;;;;;5.76;73.29;98807.28;5056784;28;5394;-81
2023/01/19 08:08:49;;;;;;;;;;;;;;;5.70;73.68;98801.81;5065642;28;5420;-81
2023/01/19 08:11:16;;;;;;;;;;;;;;;5.63;73.71;98809.13;5093303;28;5358;-81
2023/01/19 08:13:43;;;;;;;;;;;;;;;5.69;73.53;98813.56;5092297;28;5918;-81
2023/01/19 08:16:09;;;;;;;;;;;;;;;5.74;73.31;98818.22;5089395;28;5353;-80
2023/01/19 08:18:36;;;;;;;;;;;;;;;5.65;73.71;98822.28;5063455;28;5395;-80
2023/01/19 08:21:03;;;;;;;;;;;;;;;5.72;73.63;98827.50;5061493;28;5250;-81
2023/01/19 08:23:30;;;;;;;;;;;;;;;5.69;73.31;98823.44;5081608;28;5341;-81
2023/01/19 08:25:56;;;;;;;;;;;;;;;5.57;73.78;98833.28;5078964;28;5261;-81
2023/01/19 08:28:23;;;;;;;;;;;;;;;5.59;73.96;98833.84;5064725;28;5284;-80
2023/01/19 08:30:52;;;;;;;;;;;;;;;5.63;73.75;98830.50;5083622;28;5432;-81
2023/01/19 08:33:19;;;;;;;;;;;;;;;5.51;74.24;98834.19;5083226;28;5374;-81
2023/01/19 08:35:46;;;;;;;;;;;;;;;5.64;73.75;98842.81;5064425;28;5272;-81
2023/01/19 08:38:12;;;;;;;;;;;;;;;5.65;73.80;98848.97;5081832;28;5311;-80
2023/01/19 08:40:39;;;;;;;;;;;;;;;5.58;74.00;98848.25;5069155;28;5231;-81
2023/01/19 08:43:06;;;;;;;;;;;;;;;5.57;74.08;98851.97;5066130;28;5145;-80
2023/01/19 08:45:33;;;;;;;;;;;;;;;5.66;73.87;98854.09;5076646;28;5310;-81
2023/01/19 08:47:59;;;;;;;;;;;;;;;5.54;74.29;98852.44;5071471;28;5418;-81
2023/01/19 08:50:26;;;;;;;;;;;;;;;5.68;73.58;98853.88;5068295;28;5591;-79
2023/01/19 08:52:52;;;;;;;;;;;;;;;5.70;73.35;98859.78;5083467;28;5526;-81
2023/01/19 08:55:19;;;;;;;;;;;;;;;5.56;73.95;98856.50;5082143;28;5560;-81
2023/01/19 08:57:45;;;;;;;;;;;;;;;5.58;73.86;98862.41;5073944;28;5334;-81
2023/01/19 09:00:12;;;;;;;;;;;;;;;5.51;74.20;98869.72;5067964;28;5308;-81
2023/01/19 09:02:38;;;;;;;;;;;;;;;5.55;73.96;98870.88;5049884;28;5333;-81
2023/01/19 09:05:05;;;;;;;;;;;;;;;5.54;74.10;98866.59;5066005;28;5239;-81
2023/01/19 09:07:32;;;;;;;;;;;;;;;5.47;74.27;98871.19;5049250;28;5428;-81
2023/01/19 09:09:58;;;;;;;;;;;;;;;5.52;74.14;98876.69;5066813;28;5348;-81
2023/01/19 09:12:25;;;;;;;;;;;;;;;5.46;74.36;98870.38;5052154;28;5456;-80
2023/01/19 09:14:51;;;;;;;;;;;;;;;5.45;74.61;98870.63;5065137;28;5342;-81
2023/01/19 09:17:18;;;;;;;;;;;;;;;5.52;74.22;98876.69;5073171;28;5367;-80
2023/01/19 09:19:44;;;;;;;;;;;;;;;5.52;74.18;98884.69;5067577;28;5456;-81
2023/01/19 09:22:11;;;;;;;;;;;;;;;5.44;74.21;98885.00;5056467;28;5367;-81
2023/01/19 09:24:37;;;;;;;;;;;;;;;5.52;74.18;98891.91;5054821;28;5352;-81
2023/01/19 09:27:04;;;;;;;;;;;;;;;5.49;74.23;98889.69;5073180;28;5733;-80
2023/01/19 09:29:30;;;;;;;;;;;;;;;5.51;74.07;98900.97;5057366;28;5400;-80
2023/01/19 09:31:57;;;;;;;;;;;;;;;5.53;74.25;98901.53;5069402;28;5375;-81
2023/01/19 09:34:24;;;;;;;;;;;;;;;5.45;74.30;98903.47;5065044;28;5321;-80
2023/01/19 09:36:51;;;;;;;;;;;;;;;5.43;74.42;98910.91;5045839;28;5414;-80
2023/01/19 09:39:17;;;;;;;;;;;;;;;5.46;74.39;98912.31;5070420;28;5484;-80
2023/01/19 09:41:44;;;;;;;;;;;;;;;5.37;74.65;98916.34;5070287;28;5551;-81
2023/01/19 09:44:11;;;;;;;;;;;;;;;5.43;74.34;98916.25;5068665;28;5378;-81
2023/01/19 09:46:38;;;;;;;;;;;;;;;5.41;74.61;98917.50;5086212;28;5501;-81
2023/01/19 09:49:05;;;;;;;;;;;;;;;5.47;74.18;98925.44;5085815;28;5867;-80
2023/01/19 09:51:32;;;;;;;;;;;;;;;5.39;74.58;98925.75;5070858;28;5492;-81
2023/01/19 09:53:59;;;;;;;;;;;;;;;5.56;73.87;98923.28;5071152;28;5396;-80
2023/01/19 09:56:25;;;;;;;;;;;;;;;5.49;74.38;98933.22;5079336;28;5433;-81
2023/01/19 09:58:52;;;;;;;;;;;;;;;5.51;73.93;98925.00;5081301;28;5364;-80
2023/01/19 10:01:18;;;;;;;;;;;;;;;5.40;74.46;98931.91;5079461;28;5560;-81
2023/01/19 10:03:45;;;;;;;;;;;;;;;5.45;74.25;98930.19;5087190;28;5512;-80
2023/01/19 10:06:11;;;;;;;;;;;;;;;5.41;74.41;98931.69;5089412;28;5397;-80
2023/01/19 10:08:38;;;;;;;;;;;;;;;5.53;74.10;98936.25;5079293;28;5462;-81
2023/01/19 10:11:05;;;;;;;;;;;;;;;5.47;74.18;98933.47;5074841;28;5409;-80
2023/01/19 10:13:31;;;;;;;;;;;;;;;5.50;74.12;98939.38;5089877;28;5393;-80
2023/01/19 10:15:58;;;;;;;;;;;;;;;5.39;74.46;98941.78;5072689;28;5405;-80
2023/01/19 10:18:29;;;;;;;;;;;;;;;5.44;74.29;98938.41;5088371;28;5789;-80
2023/01/19 10:20:56;;;;;;;;;;;;;;;5.42;74.61;98943.19;5088702;28;5506;-80
2023/01/19 10:23:23;;;;;;;;;;;;;;;5.45;74.45;98940.06;5090514;28;5336;-80
2023/01/19 10:25:49;;;;;;;;;;;;;;;5.47;73.89;98941.47;5078755;28;5393;-81
2023/01/19 10:28:16;;;;;;;;;;;;;;;5.42;74.47;98935.97;5089047;28;5738;-81
2023/01/19 10:30:43;;;;;;;;;;;;;;;5.51;74.23;98941.81;5068636;28;5381;-80
2023/01/19 10:33:09;;;;;;;;;;;;;;;5.57;73.69;98948.94;5072045;28;5495;-80
2023/01/19 10:35:36;;;;;;;;;;;;;;;5.61;73.74;98950.09;5088886;28;5485;-80
2023/01/19 10:38:02;;;;;;;;;;;;;;;5.56;74.06;98949.16;5088922;28;5559;-81
2023/01/19 10:40:29;;;;;;;;;;;;;;;5.53;74.08;98949.59;5076223;28;5443;-81
2023/01/19 10:42:55;;;;;;;;;;;;;;;5.53;74.06;98957.59;5091270;28;5559;-81
2023/01/19 10:45:22;;;;;;;;;;;;;;;5.58;73.59;98949.75;5071070;28;5465;-80
2023/01/19 10:47:48;;;;;;;;;;;;;;;5.57;73.84;98951.59;5080081;28;5728;-80
2023/01/19 10:50:15;;;;;;;;;;;;;;;5.61;73.61;98958.09;5077184;28;5358;-80
2023/01/19 10:52:43;;;;;;;;;;;;;;;5.61;73.66;98955.44;5081083;28;5529;-81
2023/01/19 10:55:10;;;;;;;;;;;;;;;5.72;73.21;98947.72;5093010;28;5387;-81
2023/01/19 10:57:37;;;;;;;;;;;;;;;5.66;73.62;98963.59;5093869;28;5431;-81
2023/01/19 11:00:03;;;;;;;;;;;;;;;5.67;73.51;98965.22;5092735;28;5293;-81
2023/01/19 11:02:30;;;;;;;;;;;;;;;5.63;73.61;98965.91;5090849;28;5441;-81
2023/01/19 11:04:57;;;;;;;;;;;;;;;5.60;73.83;98967.16;5092915;28;5485;-80
2023/01/19 11:07:24;;;;;;;;;;;;;;;5.73;73.13;98965.34;5073333;28;5326;-80
2023/01/19 11:09:50;;;;;;;;;;;;;;;5.72;73.73;98972.56;5080804;28;5495;-81
2023/01/19 11:12:17;;;;;;;;;;;;;;;5.72;73.40;98969.91;5093641;28;5379;-80
2023/01/19 11:14:43;;;;;;;;;;;;;;;5.70;73.48;98967.44;5079166;28;5647;-81
2023/01/19 11:17:10;;;;;;;;;;;;;;;5.75;73.18;98971.31;5078111;28;5448;-81
2023/01/19 11:19:36;;;;;;;;;;;;;;;5.73;73.27;98978.72;5093095;28;5618;-81
2023/01/19 11:22:03;;;;;;;;;;;;;;;5.76;73.31;98978.25;5091493;28;5413;-81
2023/01/19 11:24:29;;;;;;;;;;;;;;;5.77;73.14;98979.91;5079310;28;5496;-81
2023/01/19 11:27:01;;;;;;;;;;;;;;;5.78;73.26;98986.88;5090522;28;5399;-81
2023/01/19 11:29:28;;;;;;;;;;;;;;;5.83;73.02;98984.34;5092790;28;5323;-80
2023/01/19 11:31:56;;;;;;;;;;;;;;;5.86;72.91;98991.91;5091532;28;5687;-80
2023/01/19 11:34:23;;;;;;;;;;;;;;;5.75;73.25;98998.81;5093697;28;5389;-80
2023/01/19 11:36:49;;;;;;;;;;;;;;;5.67;73.46;99002.63;5092592;28;5409;-80
2023/01/19 11:39:16;;;;;;;;;;;;;;;5.82;72.98;99006.75;5094791;28;5684;-81
2023/01/19 11:41:42;;;;;;;;;;;;;;;5.83;72.88;99003.84;5092887;28;5405;-81
2023/01/19 11:44:09;;;;;;;;;;;;;;;5.79;73.24;99005.34;5092489;28;5469;-81
2023/01/19 11:46:35;;;;;;;;;;;;;;;5.83;72.77;99006.53;5091432;28;5444;-81
2023/01/19 11:49:02;;;;;;;;;;;;;;;5.79;73.25;99007.19;5074624;28;5779;-81
2023/01/19 11:51:28;;;;;;;;;;;;;;;5.90;72.82;99009.09;5090943;28;5377;-81
2023/01/19 11:53:55;;;;;;;;;;;;;;;5.84;73.10;99010.81;5078027;28;5452;-81
2023/01/19 11:56:21;;;;;;;;;;;;;;;5.88;72.79;99019.19;5075765;28;5388;-81
2023/01/19 11:58:48;;;;;;;;;;;;;;;5.85;72.79;99020.50;5082435;28;5447;-80
2023/01/19 12:01:14;;;;;;;;;;;;;;;5.89;72.79;99016.31;5074356;28;5650;-80
2023/01/19 12:03:41;;;;;;;;;;;;;;;5.83;72.90;99019.09;5076056;28;5474;-81
2023/01/19 12:06:07;;;;;;;;;;;;;;;5.92;72.82;99023.88;5093394;28;5623;-81
2023/01/19 12:08:34;;;;;;;;;;;;;;;5.89;72.70;99027.00;5092853;28;5347;-80
2023/01/19 12:11:01;;;;;;;;;;;;;;;5.80;73.36;99028.34;5090954;28;5373;-81
2023/01/19 12:13:29;;;;;;;;;;;;;;;5.85;73.00;99022.31;5095189;28;5415;-81
2023/01/19 12:15:56;;;;;;;;;;;;;;;5.81;72.99;99023.81;5078654;28;5465;-81
2023/01/19 12:18:23;;;;;;;;;;;;;;;5.83;73.04;99025.22;5090916;28;5378;-80
2023/01/19 12:20:49;;;;;;;;;;;;;;;5.82;73.30;99034.28;5073838;28;5814;-80
2023/01/19 12:23:16;;;;;;;;;;;;;;;5.90;73.01;99030.47;5091676;28;5575;-80
2023/01/19 12:25:42;;;;;;;;;;;;;;;5.83;73.25;99038.59;5073736;28;5543;-80
2023/01/19 12:28:09;;;;;;;;;;;;;;;5.83;73.29;99037.78;5075120;28;5395;-80
2023/01/19 12:30:35;;;;;;;;;;;;;;;5.86;73.29;99029.31;5089942;28;5932;-80
2023/01/19 12:33:02;;;;;;;;;;;;;;;5.86;72.97;99032.78;5074172;28;5397;-80
2023/01/19 12:35:28;;;;;;;;;;;;;;;5.87;73.13;99036.28;5090638;28;5452;-80
2023/01/19 12:37:56;;;;;;;;;;;;;;;5.88;73.13;99029.88;5069329;28;5436;-80
2023/01/19 12:40:23;;;;;;;;;;;;;;;5.84;73.04;99031.38;5073637;28;5530;-80
2023/01/19 12:42:50;;;;;;;;;;;;;;;5.83;73.51;99040.47;5074700;28;5479;-80
2023/01/19 12:45:16;;;;;;;;;;;;;;;5.80;73.07;99039.03;5090524;28;5409;-80
2023/01/19 12:47:43;;;;;;;;;;;;;;;5.89;72.76;99040.34;5083047;28;5688;-80
2023/01/19 12:50:09;;;;;;;;;;;;;;;5.85;73.04;99041.03;5090003;28;5544;-80
2023/01/19 12:52:37;;;;;;;;;;;;;;;5.78;73.38;99051.00;5091881;28;5941;-80
2023/01/19 12:55:04;;;;;;;;;;;;;;;5.84;73.17;99042.06;5072222;28;5487;-81
2023/01/19 12:57:31;;;;;;;;;;;;;;;5.90;72.86;99050.00;5090617;28;5530;-80
2023/01/19 12:59:57;;;;;;;;;;;;;;;5.85;72.99;99049.88;5072164;28;5453;-80
2023/01/19 13:02:24;;;;;;;;;;;;;;;5.79;73.61;99042.75;5076659;28;5714;-80
2023/01/19 13:04:50;;;;;;;;;;;;;;;5.77;73.39;99044.84;5089424;28;5478;-80
2023/01/19 13:07:18;;;;;;;;;;;;;;;5.78;73.64;99046.47;5092391;28;5408;-80
2023/01/19 13:09:45;;;;;;;;;;;;;;;5.76;73.52;99050.41;5075303;28;5468;-80
2023/01/19 13:12:11;;;;;;;;;;;;;;;5.73;73.80;99048.19;5077592;28;5381;-81
2023/01/19 13:14:38;;;;;;;;;;;;;;;5.70;74.04;99049.44;5092862;28;5528;-81
2023/01/19 13:17:04;;;;;;;;;;;;;;;5.81;73.41;99059.38;5072517;28;5586;-80
2023/01/19 13:19:31;;;;;;;;;;;;;;;5.74;73.75;99053.31;5072982;28;5555;-81
2023/01/19 13:21:57;;;;;;;;;;;;;;;5.79;73.41;99057.97;5090850;28;5506;-80
2023/01/19 13:24:24;;;;;;;;;;;;;;;5.73;73.84;99056.19;5074584;28;5851;-80
2023/01/19 13:26:50;;;;;;;;;;;;;;;5.82;73.33;99063.66;5074063;28;5355;-81
2023/01/19 13:29:17;;;;;;;;;;;;;;;5.74;73.62;99063.19;5089004;28;5731;-80
2023/01/19 13:31:44;;;;;;;;;;;;;;;5.65;73.82;99068.00;5090764;28;5439;-80